createdAt,value
2019-02-24T00:01:03.347Z,-1.40
2019-02-24T00:02:07.916Z,-1.40
2019-02-24T00:03:12.549Z,-1.40
2019-02-24T00:04:19.300Z,-1.40
2019-02-24T00:05:23.970Z,-1.50
2019-02-24T00:06:28.584Z,-1.50
2019-02-24T00:07:33.189Z,-1.50
2019-02-24T00:08:37.804Z,-1.50
2019-02-24T00:09:42.610Z,-1.50
2019-02-24T00:10:47.295Z,-1.40
2019-02-24T00:11:51.999Z,-1.40
2019-02-24T00:12:56.654Z,-1.40
2019-02-24T00:14:01.455Z,-1.40
2019-02-24T00:15:06.071Z,-1.40
2019-02-24T00:16:10.923Z,-1.30
2019-02-24T00:17:15.555Z,-1.30
2019-02-24T00:18:20.376Z,-1.30
2019-02-24T00:19:24.955Z,-1.30
2019-02-24T00:20:29.578Z,-1.30
2019-02-24T00:21:34.275Z,-1.30
2019-02-24T00:22:39.904Z,-1.30
2019-02-24T00:23:46.026Z,-1.30
2019-02-24T00:24:50.609Z,-1.30
2019-02-24T00:25:55.315Z,-1.30
2019-02-24T00:27:00.939Z,-1.20
2019-02-24T00:28:07.313Z,-1.30
2019-02-24T00:29:11.876Z,-1.30
2019-02-24T00:30:16.497Z,-1.30
2019-02-24T00:31:21.132Z,-1.30
2019-02-24T00:32:25.735Z,-1.30
2019-02-24T00:33:30.411Z,-1.20
2019-02-24T00:34:35.008Z,-1.20
2019-02-24T00:35:39.609Z,-1.20
2019-02-24T00:36:44.202Z,-1.20
2019-02-24T00:37:49.929Z,-1.20
2019-02-24T00:38:54.570Z,-1.20
2019-02-24T00:39:59.156Z,-1.20
2019-02-24T00:41:03.790Z,-1.20
2019-02-24T00:42:08.505Z,-1.20
2019-02-24T00:43:13.125Z,-1.10
2019-02-24T00:44:17.731Z,-1.10
2019-02-24T00:45:22.348Z,-1.10
2019-02-24T00:46:26.952Z,-1.10
2019-02-24T00:47:31.588Z,-1.10
2019-02-24T00:48:36.199Z,-1.10
2019-02-24T00:49:40.799Z,-1.10
2019-02-24T00:50:45.427Z,-1.10
2019-02-24T00:51:50.080Z,-1.10
2019-02-24T00:52:54.663Z,-1.10
2019-02-24T00:53:59.284Z,-1.10
2019-02-24T00:55:04.399Z,-1.10
2019-02-24T00:56:09.257Z,-1.10
2019-02-24T00:57:14.447Z,-1.10
2019-02-24T00:58:19.085Z,-1.10
2019-02-24T00:59:23.763Z,-1.10
2019-02-24T01:00:28.353Z,-1.10
2019-02-24T01:01:32.980Z,-1.10
2019-02-24T01:02:37.573Z,-1.10
2019-02-24T01:03:42.188Z,-1.10
2019-02-24T01:04:47.875Z,-1.10
2019-02-24T01:05:52.585Z,-1.10
2019-02-24T01:06:57.219Z,-1.10
2019-02-24T01:08:01.821Z,-1.10
2019-02-24T01:09:07.067Z,-1.10
2019-02-24T01:10:12.718Z,-1.10
2019-02-24T01:11:17.306Z,-1.10
2019-02-24T01:12:21.935Z,-1.20
2019-02-24T01:13:26.542Z,-1.20
2019-02-24T01:14:31.225Z,-1.20
2019-02-24T01:15:35.844Z,-1.20
2019-02-24T01:16:40.769Z,-1.20
2019-02-24T01:17:45.382Z,-1.20
2019-02-24T01:18:49.976Z,-1.20
2019-02-24T01:19:54.580Z,-1.20
2019-02-24T01:20:59.144Z,-1.20
2019-02-24T01:22:03.834Z,-1.30
2019-02-24T01:23:08.441Z,-1.30
2019-02-24T01:24:13.071Z,-1.30
2019-02-24T01:25:17.824Z,-1.30
2019-02-24T01:26:22.504Z,-1.20
2019-02-24T01:27:27.143Z,-1.20
2019-02-24T01:28:31.804Z,-1.20
2019-02-24T01:29:36.435Z,-1.20
2019-02-24T01:30:41.078Z,-1.20
2019-02-24T01:31:45.681Z,-1.20
2019-02-24T01:32:50.293Z,-1.20
2019-02-24T01:33:54.939Z,-1.20
2019-02-24T01:34:59.602Z,-1.20
2019-02-24T01:36:04.376Z,-1.20
2019-02-24T01:37:09.050Z,-1.20
2019-02-24T01:38:13.692Z,-1.30
2019-02-24T01:39:18.398Z,-1.30
2019-02-24T01:40:23.027Z,-1.30
2019-02-24T01:41:32.164Z,-1.40
2019-02-24T01:42:36.752Z,-1.40
2019-02-24T01:43:41.456Z,-1.40
2019-02-24T01:44:46.071Z,-1.40
2019-02-24T01:45:50.722Z,-1.40
2019-02-24T01:46:55.330Z,-1.40
2019-02-24T01:47:59.957Z,-1.40
2019-02-24T01:49:04.638Z,-1.40
2019-02-24T01:50:10.318Z,-1.40
2019-02-24T01:51:14.990Z,-1.40
2019-02-24T01:52:20.671Z,-1.40
2019-02-24T01:53:25.375Z,-1.40
2019-02-24T01:54:30.066Z,-1.40
2019-02-24T01:55:34.730Z,-1.40
2019-02-24T01:56:39.387Z,-1.40
2019-02-24T01:57:44.014Z,-1.40
2019-02-24T01:58:48.737Z,-1.40
2019-02-24T01:59:53.367Z,-1.40
2019-02-24T02:00:58.048Z,-1.50
2019-02-24T02:02:02.679Z,-1.50
2019-02-24T02:03:08.443Z,-1.50
2019-02-24T02:04:13.016Z,-1.50
2019-02-24T02:05:17.635Z,-1.50
2019-02-24T02:06:22.194Z,-1.50
2019-02-24T02:07:26.783Z,-1.50
2019-02-24T02:08:31.442Z,-1.50
2019-02-24T02:09:36.046Z,-1.50
2019-02-24T02:10:42.291Z,-1.50
2019-02-24T02:11:46.919Z,-1.50
2019-02-24T02:12:51.532Z,-1.40
2019-02-24T02:13:56.138Z,-1.50
2019-02-24T02:15:00.741Z,-1.50
2019-02-24T02:16:05.402Z,-1.50
2019-02-24T02:17:10.003Z,-1.50
2019-02-24T02:18:14.598Z,-1.60
2019-02-24T02:19:19.212Z,-1.60
2019-02-24T02:20:23.870Z,-1.60
2019-02-24T02:21:28.547Z,-1.60
2019-02-24T02:22:33.200Z,-1.60
2019-02-24T02:23:37.797Z,-1.70
2019-02-24T02:24:42.534Z,-1.70
2019-02-24T02:25:48.536Z,-1.70
2019-02-24T02:26:53.256Z,-1.70
2019-02-24T02:27:57.885Z,-1.70
2019-02-24T02:29:02.528Z,-1.70
2019-02-24T02:30:08.359Z,-1.70
2019-02-24T02:31:12.954Z,-1.70
2019-02-24T02:32:17.633Z,-1.70
2019-02-24T02:33:22.253Z,-1.70
2019-02-24T02:34:26.897Z,-1.70
2019-02-24T02:35:31.507Z,-1.70
2019-02-24T02:36:36.147Z,-1.70
2019-02-24T02:37:40.783Z,-1.70
2019-02-24T02:38:45.842Z,-1.70
2019-02-24T02:39:50.535Z,-1.70
2019-02-24T02:40:55.126Z,-1.70
2019-02-24T02:41:59.816Z,-1.70
2019-02-24T02:43:04.382Z,-1.70
2019-02-24T02:44:09.088Z,-1.70
2019-02-24T02:45:13.717Z,-1.70
2019-02-24T02:46:18.298Z,-1.60
2019-02-24T02:47:22.896Z,-1.60
2019-02-24T02:48:27.503Z,-1.60
2019-02-24T02:49:32.092Z,-1.60
2019-02-24T02:50:36.707Z,-1.60
2019-02-24T02:51:42.272Z,-1.60
2019-02-24T02:52:46.894Z,-1.70
2019-02-24T02:53:51.474Z,-1.60
2019-02-24T02:54:56.082Z,-1.60
2019-02-24T02:56:00.691Z,-1.60
2019-02-24T02:57:05.352Z,-1.60
2019-02-24T02:58:09.956Z,-1.60
2019-02-24T02:59:14.557Z,-1.60
2019-02-24T03:00:30.017Z,-1.60
2019-02-24T03:01:34.607Z,-1.60
2019-02-24T03:02:39.170Z,-1.60
2019-02-24T03:03:43.771Z,-1.60
2019-02-24T03:04:48.387Z,-1.60
2019-02-24T03:06:03.840Z,-1.60
2019-02-24T03:07:27.625Z,-1.60
2019-02-24T03:08:52.131Z,-1.50
2019-02-24T03:09:56.837Z,-1.60
2019-02-24T03:11:02.500Z,-1.60
2019-02-24T03:12:07.115Z,-1.60
2019-02-24T03:13:11.706Z,-1.60
2019-02-24T03:14:16.291Z,-1.60
2019-02-24T03:15:20.882Z,-1.60
2019-02-24T03:16:27.896Z,-1.60
2019-02-24T03:17:33.437Z,-1.60
2019-02-24T03:18:38.002Z,-1.70
2019-02-24T03:19:43.694Z,-1.70
2019-02-24T03:20:48.283Z,-1.70
2019-02-24T03:21:52.878Z,-1.70
2019-02-24T03:22:57.463Z,-1.70
2019-02-24T03:24:02.058Z,-1.70
2019-02-24T03:25:07.119Z,-1.80
2019-02-24T03:26:11.795Z,-1.80
2019-02-24T03:27:16.419Z,-1.80
2019-02-24T03:28:21.059Z,-1.80
2019-02-24T03:29:25.679Z,-1.80
2019-02-24T03:30:30.307Z,-1.80
2019-02-24T03:31:34.910Z,-1.80
2019-02-24T03:32:39.552Z,-1.80
2019-02-24T03:33:45.111Z,-1.80
2019-02-24T03:34:50.051Z,-1.90
2019-02-24T03:35:54.642Z,-1.90
2019-02-24T03:36:59.285Z,-1.90
2019-02-24T03:38:03.872Z,-1.90
2019-02-24T03:39:08.493Z,-1.90
2019-02-24T03:40:13.097Z,-1.90
2019-02-24T03:41:17.683Z,-1.90
2019-02-24T03:42:22.269Z,-1.80
2019-02-24T03:43:27.043Z,-1.80
2019-02-24T03:44:31.639Z,-1.80
2019-02-24T03:45:36.251Z,-1.80
2019-02-24T03:46:40.862Z,-1.80
2019-02-24T03:47:45.483Z,-1.80
2019-02-24T03:48:50.084Z,-1.80
2019-02-24T03:49:55.656Z,-1.80
2019-02-24T03:51:00.250Z,-1.80
2019-02-24T03:52:04.856Z,-1.80
2019-02-24T03:53:09.535Z,-1.80
2019-02-24T03:54:14.143Z,-1.80
2019-02-24T03:55:18.718Z,-1.80
2019-02-24T03:56:23.296Z,-1.90
2019-02-24T03:57:28.112Z,-1.80
2019-02-24T03:58:32.747Z,-1.90
2019-02-24T03:59:37.346Z,-1.90
2019-02-24T04:00:41.991Z,-1.90
2019-02-24T04:01:49.772Z,-1.80
2019-02-24T04:02:54.434Z,-1.80
2019-02-24T04:03:59.198Z,-1.80
2019-02-24T04:05:03.983Z,-1.80
2019-02-24T04:06:10.742Z,-1.80
2019-02-24T04:07:15.468Z,-1.90
2019-02-24T04:08:20.218Z,-1.90
2019-02-24T04:09:24.779Z,-1.90
2019-02-24T04:10:29.416Z,-1.90
2019-02-24T04:11:34.062Z,-1.90
2019-02-24T04:12:38.640Z,-1.90
2019-02-24T04:13:43.264Z,-1.80
2019-02-24T04:14:47.916Z,-1.80
2019-02-24T04:15:53.534Z,-1.80
2019-02-24T04:16:58.111Z,-1.80
2019-02-24T04:18:02.690Z,-1.80
2019-02-24T04:19:07.260Z,-1.80
2019-02-24T04:20:11.819Z,-1.80
2019-02-24T04:21:16.406Z,-1.80
2019-02-24T04:22:21.103Z,-1.80
2019-02-24T04:23:25.707Z,-1.80
2019-02-24T04:24:30.380Z,-1.80
2019-02-24T04:25:34.999Z,-1.80
2019-02-24T04:26:39.635Z,-1.80
2019-02-24T04:27:44.330Z,-1.80
2019-02-24T04:28:48.963Z,-1.80
2019-02-24T04:29:53.580Z,-1.70
2019-02-24T04:30:58.168Z,-1.70
2019-02-24T04:32:06.123Z,-1.70
2019-02-24T04:33:10.805Z,-1.70
2019-02-24T04:34:15.456Z,-1.70
2019-02-24T04:35:20.070Z,-1.70
2019-02-24T04:36:24.666Z,-1.70
2019-02-24T04:37:29.251Z,-1.70
2019-02-24T04:38:33.873Z,-1.70
2019-02-24T04:39:38.529Z,-1.70
2019-02-24T04:40:43.130Z,-1.70
2019-02-24T04:41:48.151Z,-1.70
2019-02-24T04:42:52.743Z,-1.70
2019-02-24T04:43:57.453Z,-1.70
2019-02-24T04:45:02.068Z,-1.70
2019-02-24T04:46:06.713Z,-1.70
2019-02-24T04:47:11.335Z,-1.70
2019-02-24T04:48:15.949Z,-1.70
2019-02-24T04:49:20.694Z,-1.70
2019-02-24T04:50:26.487Z,-1.70
2019-02-24T04:51:31.142Z,-1.70
2019-02-24T04:52:35.895Z,-1.70
2019-02-24T04:53:40.525Z,-1.70
2019-02-24T04:54:45.098Z,-1.70
2019-02-24T04:55:49.896Z,-1.70
2019-02-24T04:56:54.551Z,-1.70
2019-02-24T04:58:00.248Z,-1.70
2019-02-24T04:59:04.863Z,-1.70
2019-02-24T05:00:09.942Z,-1.70
2019-02-24T05:01:14.551Z,-1.70
2019-02-24T05:02:19.214Z,-1.70
2019-02-24T05:03:23.913Z,-1.70
2019-02-24T05:04:28.562Z,-1.70
2019-02-24T05:05:33.178Z,-1.70
2019-02-24T05:06:37.779Z,-1.70
2019-02-24T05:07:42.377Z,-1.70
2019-02-24T05:08:46.970Z,-1.70
2019-02-24T05:09:51.570Z,-1.70
2019-02-24T05:10:56.173Z,-1.70
2019-02-24T05:12:00.769Z,-1.80
2019-02-24T05:13:05.402Z,-1.80
2019-02-24T05:14:09.982Z,-1.80
2019-02-24T05:15:14.739Z,-1.80
2019-02-24T05:16:19.301Z,-1.80
2019-02-24T05:17:23.918Z,-1.80
2019-02-24T05:18:28.535Z,-1.70
2019-02-24T05:19:33.210Z,-1.80
2019-02-24T05:20:37.775Z,-1.70
2019-02-24T05:21:42.384Z,-1.80
2019-02-24T05:22:47.001Z,-1.80
2019-02-24T05:23:51.691Z,-1.80
2019-02-24T05:24:56.281Z,-1.80
2019-02-24T05:26:00.892Z,-1.80
2019-02-24T05:27:05.466Z,-1.80
2019-02-24T05:28:10.062Z,-1.80
2019-02-24T05:29:14.663Z,-1.80
2019-02-24T05:30:19.240Z,-1.70
2019-02-24T05:31:23.823Z,-1.70
2019-02-24T05:32:28.407Z,-1.70
2019-02-24T05:33:33.035Z,-1.60
2019-02-24T05:34:37.646Z,-1.60
2019-02-24T05:35:42.250Z,-1.70
2019-02-24T05:36:46.874Z,-1.70
2019-02-24T05:37:51.608Z,-1.70
2019-02-24T05:38:56.251Z,-1.70
2019-02-24T05:40:00.858Z,-1.70
2019-02-24T05:41:05.447Z,-1.70
2019-02-24T05:42:10.085Z,-1.70
2019-02-24T05:43:14.660Z,-1.70
2019-02-24T05:44:19.384Z,-1.60
2019-02-24T05:45:24.071Z,-1.60
2019-02-24T05:46:29.632Z,-1.70
2019-02-24T05:47:34.279Z,-1.70
2019-02-24T05:48:38.858Z,-1.70
2019-02-24T05:49:43.483Z,-1.70
2019-02-24T05:50:48.102Z,-1.70
2019-02-24T05:51:52.810Z,-1.70
2019-02-24T05:52:57.430Z,-1.70
2019-02-24T05:54:02.043Z,-1.70
2019-02-24T05:55:06.695Z,-1.70
2019-02-24T05:56:11.407Z,-1.70
2019-02-24T05:57:16.008Z,-1.70
2019-02-24T05:58:20.652Z,-1.70
2019-02-24T05:59:25.250Z,-1.70
2019-02-24T06:00:29.950Z,-1.70
2019-02-24T06:01:34.550Z,-1.70
2019-02-24T06:02:39.198Z,-1.70
2019-02-24T06:03:43.853Z,-1.70
2019-02-24T06:04:48.436Z,-1.70
2019-02-24T06:05:53.086Z,-1.70
2019-02-24T06:06:57.696Z,-1.60
2019-02-24T06:08:02.324Z,-1.60
2019-02-24T06:09:08.623Z,-1.60
2019-02-24T06:10:15.080Z,-1.60
2019-02-24T06:11:22.418Z,-1.60
2019-02-24T06:12:29.844Z,-1.60
2019-02-24T06:13:34.542Z,-1.60
2019-02-24T06:14:39.180Z,-1.60
2019-02-24T06:15:45.535Z,-1.60
2019-02-24T06:16:50.511Z,-1.50
2019-02-24T06:17:55.216Z,-1.60
2019-02-24T06:18:59.995Z,-1.50
2019-02-24T06:20:04.655Z,-1.50
2019-02-24T06:21:09.339Z,-1.50
2019-02-24T06:22:15.266Z,-1.50
2019-02-24T06:23:21.191Z,-1.50
2019-02-24T06:24:25.882Z,-1.40
2019-02-24T06:25:30.659Z,-1.40
2019-02-24T06:26:37.105Z,-1.40
2019-02-24T06:27:44.007Z,-1.40
2019-02-24T06:28:48.643Z,-1.30
2019-02-24T06:30:04.503Z,-1.30
2019-02-24T06:31:07.555Z,-1.30
2019-02-24T06:32:15.650Z,-1.30
2019-02-24T06:33:20.419Z,-1.20
2019-02-24T06:34:28.870Z,-1.20
2019-02-24T06:35:36.090Z,-1.20
2019-02-24T06:36:41.311Z,-1.20
2019-02-24T06:37:45.990Z,-1.20
2019-02-24T06:38:50.624Z,-1.20
2019-02-24T06:39:55.732Z,-1.20
2019-02-24T06:41:00.605Z,-1.20
2019-02-24T06:42:08.107Z,-1.10
2019-02-24T06:43:12.696Z,-1.20
2019-02-24T06:44:17.355Z,-1.10
2019-02-24T06:45:21.988Z,-1.10
2019-02-24T06:46:26.597Z,-1.10
2019-02-24T06:47:31.183Z,-1.00
2019-02-24T06:48:35.972Z,-1.00
2019-02-24T06:49:42.048Z,-1.00
2019-02-24T06:50:55.025Z,-1.00
2019-02-24T06:52:00.275Z,-1.00
2019-02-24T06:53:04.851Z,-1.00
2019-02-24T06:54:09.542Z,-1.00
2019-02-24T06:55:14.279Z,-1.00
2019-02-24T06:56:18.862Z,-0.90
2019-02-24T06:57:23.480Z,-0.90
2019-02-24T06:58:31.142Z,-0.90
2019-02-24T06:59:39.926Z,-0.80
2019-02-24T07:00:44.669Z,-0.80
2019-02-24T07:01:49.310Z,-0.80
2019-02-24T07:02:53.994Z,-0.80
2019-02-24T07:03:59.579Z,-0.80
2019-02-24T07:05:05.837Z,-0.80
2019-02-24T07:06:10.635Z,-0.80
2019-02-24T07:07:15.979Z,-0.80
2019-02-24T07:08:20.567Z,-0.80
2019-02-24T07:09:28.029Z,-0.80
2019-02-24T07:10:32.866Z,-0.80
2019-02-24T07:11:37.769Z,-0.80
2019-02-24T07:12:42.363Z,-0.70
2019-02-24T07:13:47.004Z,-0.80
2019-02-24T07:14:53.258Z,-0.70
2019-02-24T07:15:58.146Z,-0.70
2019-02-24T07:17:03.350Z,-0.70
2019-02-24T07:18:07.990Z,-0.70
2019-02-24T07:19:12.565Z,-0.60
2019-02-24T07:20:20.779Z,-0.50
2019-02-24T07:21:28.201Z,-0.50
2019-02-24T07:22:34.030Z,-0.50
2019-02-24T07:23:38.773Z,-0.50
2019-02-24T07:24:44.006Z,-0.50
2019-02-24T07:25:48.648Z,-0.50
2019-02-24T07:26:54.514Z,-0.40
2019-02-24T07:28:01.570Z,-0.40
2019-02-24T07:29:07.460Z,-0.40
2019-02-24T07:30:22.812Z,-0.30
2019-02-24T07:31:21.649Z,-0.30
2019-02-24T07:32:27.114Z,-0.20
2019-02-24T07:33:34.099Z,-0.20
2019-02-24T07:34:39.282Z,-0.20
2019-02-24T07:35:43.940Z,-0.20
2019-02-24T07:36:48.582Z,-0.10
2019-02-24T07:37:53.169Z,-0.10
2019-02-24T07:38:57.868Z,-0.10
2019-02-24T07:40:02.557Z,-0.10
2019-02-24T07:41:09.962Z,-0.10
2019-02-24T07:42:14.567Z,-0.10
2019-02-24T07:43:19.154Z,0.00
2019-02-24T07:44:26.458Z,0.00
2019-02-24T07:45:33.384Z,0.00
2019-02-24T07:46:40.408Z,0.10
2019-02-24T07:47:46.469Z,0.10
2019-02-24T07:48:52.200Z,0.10
2019-02-24T07:49:58.014Z,0.10
2019-02-24T07:51:04.031Z,0.20
2019-02-24T07:52:09.338Z,0.20
2019-02-24T07:53:13.975Z,0.30
2019-02-24T07:54:18.549Z,0.30
2019-02-24T07:55:23.372Z,0.30
2019-02-24T07:56:31.387Z,0.40
2019-02-24T07:57:36.699Z,0.40
2019-02-24T07:58:41.606Z,0.40
2019-02-24T07:59:46.842Z,0.40
2019-02-24T08:00:51.540Z,0.40
2019-02-24T08:01:56.178Z,0.50
2019-02-24T08:03:00.824Z,0.50
2019-02-24T08:04:05.415Z,0.60
2019-02-24T08:05:10.385Z,0.60
2019-02-24T08:06:15.752Z,0.60
2019-02-24T08:07:25.150Z,0.60
2019-02-24T08:08:31.497Z,0.70
2019-02-24T08:09:37.461Z,0.70
2019-02-24T08:10:44.401Z,0.70
2019-02-24T08:11:49.516Z,0.70
2019-02-24T08:12:54.620Z,0.70
2019-02-24T08:14:01.050Z,0.70
2019-02-24T08:15:06.518Z,0.70
2019-02-24T08:16:12.393Z,0.80
2019-02-24T08:17:17.093Z,0.70
2019-02-24T08:18:22.740Z,0.80
2019-02-24T08:19:27.697Z,0.80
2019-02-24T08:20:34.764Z,0.90
2019-02-24T08:21:40.414Z,0.90
2019-02-24T08:22:48.168Z,0.90
2019-02-24T08:23:53.634Z,1.00
2019-02-24T08:24:58.805Z,1.00
2019-02-24T08:26:04.247Z,1.10
2019-02-24T08:27:10.041Z,1.10
2019-02-24T08:28:14.900Z,1.10
2019-02-24T08:29:21.520Z,1.20
2019-02-24T08:30:26.513Z,1.20
2019-02-24T08:31:33.109Z,1.30
2019-02-24T08:32:38.339Z,1.30
2019-02-24T08:33:42.904Z,1.30
2019-02-24T08:34:47.579Z,1.40
2019-02-24T08:35:52.465Z,1.40
2019-02-24T08:36:58.026Z,1.50
2019-02-24T08:38:02.744Z,1.50
2019-02-24T08:39:07.371Z,1.50
2019-02-24T08:40:12.018Z,1.50
2019-02-24T08:41:16.588Z,1.50
2019-02-24T08:42:21.144Z,1.50
2019-02-24T08:43:25.848Z,1.60
2019-02-24T08:44:30.542Z,1.60
2019-02-24T08:45:35.911Z,1.50
2019-02-24T08:46:45.850Z,1.50
2019-02-24T08:47:50.465Z,1.50
2019-02-24T08:48:55.399Z,1.50
2019-02-24T08:50:00.049Z,1.50
2019-02-24T08:51:05.644Z,1.50
2019-02-24T08:52:10.644Z,1.50
2019-02-24T08:53:15.330Z,1.50
2019-02-24T08:54:20.014Z,1.50
2019-02-24T08:55:24.655Z,1.60
2019-02-24T08:56:29.336Z,1.60
2019-02-24T08:57:34.082Z,1.80
2019-02-24T08:58:38.763Z,2.00
2019-02-24T08:59:43.410Z,2.20
2019-02-24T09:00:51.022Z,2.40
2019-02-24T09:01:54.336Z,2.70
2019-02-24T09:02:58.994Z,3.00
2019-02-24T09:04:03.652Z,3.20
2019-02-24T09:05:08.386Z,3.40
2019-02-24T09:06:12.951Z,3.60
2019-02-24T09:07:17.558Z,3.80
2019-02-24T09:08:22.189Z,3.90
2019-02-24T09:09:26.974Z,3.90
2019-02-24T09:10:31.664Z,3.70
2019-02-24T09:11:37.347Z,3.60
2019-02-24T09:12:42.088Z,3.50
2019-02-24T09:13:46.681Z,3.30
2019-02-24T09:14:51.280Z,3.20
2019-02-24T09:15:55.879Z,3.20
2019-02-24T09:17:00.504Z,3.10
2019-02-24T09:18:05.142Z,3.10
2019-02-24T09:19:09.770Z,3.00
2019-02-24T09:20:14.461Z,3.00
2019-02-24T09:21:20.056Z,3.00
2019-02-24T09:22:24.746Z,3.10
2019-02-24T09:23:29.515Z,3.10
2019-02-24T09:24:34.227Z,3.10
2019-02-24T09:25:38.911Z,3.20
2019-02-24T09:26:43.515Z,3.20
2019-02-24T09:27:48.104Z,3.30
2019-02-24T09:28:52.822Z,3.30
2019-02-24T09:29:57.438Z,3.30
2019-02-24T09:31:02.042Z,3.30
2019-02-24T09:32:06.631Z,3.30
2019-02-24T09:33:12.304Z,3.40
2019-02-24T09:34:16.923Z,3.40
2019-02-24T09:35:21.514Z,3.50
2019-02-24T09:36:26.267Z,3.50
2019-02-24T09:37:30.848Z,3.70
2019-02-24T09:38:35.531Z,3.70
2019-02-24T09:39:40.153Z,3.70
2019-02-24T09:40:44.807Z,3.70
2019-02-24T09:41:50.082Z,3.80
2019-02-24T09:42:54.724Z,3.90
2019-02-24T09:43:59.373Z,3.90
2019-02-24T09:45:04.393Z,4.00
2019-02-24T09:46:09.019Z,4.00
2019-02-24T09:47:13.632Z,4.10
2019-02-24T09:48:18.375Z,4.10
2019-02-24T09:49:23.018Z,4.20
2019-02-24T09:50:27.673Z,4.30
2019-02-24T09:51:32.336Z,4.40
2019-02-24T09:52:36.890Z,4.40
2019-02-24T09:53:41.548Z,4.50
2019-02-24T09:54:46.181Z,4.60
2019-02-24T09:55:51.882Z,4.70
2019-02-24T09:56:56.450Z,4.70
2019-02-24T09:58:01.074Z,4.70
2019-02-24T09:59:05.811Z,4.70
2019-02-24T10:00:10.965Z,4.70
2019-02-24T10:01:15.761Z,4.70
2019-02-24T10:02:22.451Z,4.70
2019-02-24T10:03:27.064Z,4.80
2019-02-24T10:04:31.741Z,4.80
2019-02-24T10:05:36.382Z,4.80
2019-02-24T10:06:41.575Z,4.80
2019-02-24T10:07:46.236Z,4.90
2019-02-24T10:08:51.950Z,4.90
2019-02-24T10:09:56.571Z,4.90
2019-02-24T10:11:01.198Z,4.90
2019-02-24T10:12:05.990Z,5.00
2019-02-24T10:13:10.613Z,5.00
2019-02-24T10:14:15.420Z,5.10
2019-02-24T10:15:20.067Z,5.10
2019-02-24T10:16:24.687Z,5.20
2019-02-24T10:17:30.862Z,5.30
2019-02-24T10:18:35.722Z,5.30
2019-02-24T10:19:40.336Z,5.40
2019-02-24T10:20:44.958Z,5.50
2019-02-24T10:21:49.568Z,5.50
2019-02-24T10:22:54.199Z,5.50
2019-02-24T10:23:58.906Z,5.50
2019-02-24T10:25:05.830Z,5.60
2019-02-24T10:26:10.049Z,5.50
2019-02-24T10:27:14.683Z,5.50
2019-02-24T10:28:19.337Z,5.50
2019-02-24T10:29:23.991Z,5.50
2019-02-24T10:30:29.778Z,5.50
2019-02-24T10:31:38.971Z,5.60
2019-02-24T10:32:45.912Z,5.60
2019-02-24T10:33:50.248Z,5.60
2019-02-24T10:34:55.280Z,5.50
2019-02-24T10:36:00.326Z,5.60
2019-02-24T10:37:04.936Z,5.50
2019-02-24T10:38:10.699Z,5.60
2019-02-24T10:39:15.830Z,5.60
2019-02-24T10:40:20.593Z,5.70
2019-02-24T10:41:25.260Z,5.70
2019-02-24T10:42:29.903Z,5.70
2019-02-24T10:43:34.569Z,5.70
2019-02-24T10:44:39.180Z,5.70
2019-02-24T10:45:44.445Z,5.70
2019-02-24T10:46:49.056Z,5.80
2019-02-24T10:47:53.667Z,5.80
2019-02-24T10:49:03.256Z,5.80
2019-02-24T10:50:05.992Z,5.90
2019-02-24T10:51:10.751Z,6.00
2019-02-24T10:52:15.385Z,6.00
2019-02-24T10:53:20.098Z,6.10
2019-02-24T10:54:24.791Z,6.10
2019-02-24T10:55:29.474Z,6.20
2019-02-24T10:56:34.634Z,6.20
2019-02-24T10:57:39.858Z,6.20
2019-02-24T10:58:45.663Z,6.20
2019-02-24T10:59:50.461Z,6.20
2019-02-24T11:00:57.708Z,6.30
2019-02-24T11:02:04.511Z,6.30
2019-02-24T11:03:09.151Z,6.30
2019-02-24T11:04:13.867Z,6.30
2019-02-24T11:05:18.874Z,6.40
2019-02-24T11:06:23.488Z,6.40
2019-02-24T11:07:28.190Z,6.50
2019-02-24T11:08:33.006Z,6.60
2019-02-24T11:09:39.051Z,6.60
2019-02-24T11:10:43.707Z,6.70
2019-02-24T11:11:48.306Z,6.70
2019-02-24T11:12:53.205Z,6.70
2019-02-24T11:13:58.053Z,6.80
2019-02-24T11:15:02.895Z,6.80
2019-02-24T11:16:10.234Z,6.90
2019-02-24T11:17:15.264Z,7.00
2019-02-24T11:18:22.656Z,7.00
2019-02-24T11:19:29.950Z,7.20
2019-02-24T11:20:36.258Z,7.20
2019-02-24T11:21:40.963Z,7.30
2019-02-24T11:22:46.694Z,7.30
2019-02-24T11:23:51.431Z,7.40
2019-02-24T11:24:56.198Z,7.50
2019-02-24T11:26:03.482Z,7.60
2019-02-24T11:27:09.707Z,7.60
2019-02-24T11:28:14.887Z,7.60
2019-02-24T11:29:19.500Z,7.70
2019-02-24T11:30:24.224Z,7.70
2019-02-24T11:31:28.922Z,7.70
2019-02-24T11:32:34.110Z,7.80
2019-02-24T11:33:39.367Z,7.80
2019-02-24T11:34:44.162Z,7.80
2019-02-24T11:35:50.524Z,7.90
2019-02-24T11:36:55.229Z,7.90
2019-02-24T11:38:00.762Z,7.90
2019-02-24T11:39:06.945Z,8.00
2019-02-24T11:40:12.323Z,8.00
2019-02-24T11:41:18.838Z,8.00
2019-02-24T11:42:23.595Z,8.10
2019-02-24T11:43:32.211Z,8.10
2019-02-24T11:44:37.993Z,8.20
2019-02-24T11:45:42.591Z,8.20
2019-02-24T11:46:47.288Z,8.20
2019-02-24T11:48:02.892Z,8.20
2019-02-24T11:49:07.459Z,8.30
2019-02-24T11:50:12.184Z,8.40
2019-02-24T11:51:16.800Z,8.40
2019-02-24T11:52:22.488Z,8.50
2019-02-24T11:53:27.118Z,8.40
2019-02-24T11:54:31.710Z,8.40
2019-02-24T11:55:36.320Z,8.50
2019-02-24T11:56:40.905Z,8.50
2019-02-24T11:57:45.572Z,8.50
2019-02-24T11:58:50.194Z,8.50
2019-02-24T11:59:54.946Z,8.50
2019-02-24T12:00:59.682Z,8.50
2019-02-24T12:02:04.433Z,8.60
2019-02-24T12:03:14.291Z,8.60
2019-02-24T12:04:20.296Z,8.60
2019-02-24T12:05:26.157Z,8.70
2019-02-24T12:06:30.775Z,8.70
2019-02-24T12:07:35.456Z,8.70
2019-02-24T12:08:40.074Z,8.70
2019-02-24T12:09:46.260Z,8.70
2019-02-24T12:10:52.492Z,8.80
2019-02-24T12:11:58.506Z,8.80
2019-02-24T12:13:03.115Z,8.80
2019-02-24T12:14:08.137Z,8.80
2019-02-24T12:15:13.678Z,8.80
2019-02-24T12:16:19.270Z,8.90
2019-02-24T12:17:24.281Z,8.90
2019-02-24T12:18:29.125Z,8.90
2019-02-24T12:19:33.807Z,8.90
2019-02-24T12:20:38.462Z,9.00
2019-02-24T12:21:43.031Z,9.00
2019-02-24T12:22:47.780Z,9.00
2019-02-24T12:23:52.483Z,9.00
2019-02-24T12:24:58.255Z,9.00
2019-02-24T12:26:03.058Z,9.10
2019-02-24T12:27:08.951Z,9.10
2019-02-24T12:28:13.595Z,9.10
2019-02-24T12:29:18.203Z,9.10
2019-02-24T12:30:23.245Z,9.20
2019-02-24T12:31:27.875Z,9.20
2019-02-24T12:32:32.548Z,9.20
2019-02-24T12:33:38.594Z,9.30
2019-02-24T12:34:45.563Z,9.30
2019-02-24T12:35:50.226Z,9.30
2019-02-24T12:36:56.272Z,9.30
2019-02-24T12:38:00.880Z,9.40
2019-02-24T12:39:06.317Z,9.40
2019-02-24T12:40:12.678Z,9.50
2019-02-24T12:41:17.345Z,9.50
2019-02-24T12:42:21.989Z,9.60
2019-02-24T12:43:26.604Z,9.60
2019-02-24T12:44:31.254Z,9.60
2019-02-24T12:45:36.098Z,9.60
2019-02-24T12:46:40.735Z,9.70
2019-02-24T12:47:45.396Z,9.70
2019-02-24T12:48:50.059Z,9.70
2019-02-24T12:50:02.912Z,9.70
2019-02-24T12:51:01.078Z,9.70
2019-02-24T12:52:05.862Z,9.80
2019-02-24T12:53:10.522Z,9.80
2019-02-24T12:54:15.245Z,9.80
2019-02-24T12:55:20.034Z,9.80
2019-02-24T12:56:24.672Z,9.80
2019-02-24T12:57:29.555Z,9.80
2019-02-24T12:58:34.291Z,9.80
2019-02-24T12:59:42.144Z,9.80
2019-02-24T13:00:46.821Z,9.90
2019-02-24T13:01:51.534Z,9.90
2019-02-24T13:02:56.326Z,9.90
2019-02-24T13:04:02.100Z,9.90
2019-02-24T13:05:06.926Z,9.90
2019-02-24T13:06:12.839Z,9.90
2019-02-24T13:07:17.463Z,10.00
2019-02-24T13:08:22.269Z,10.00
2019-02-24T13:09:26.910Z,10.00
2019-02-24T13:10:31.590Z,10.00
2019-02-24T13:11:36.306Z,10.00
2019-02-24T13:12:40.997Z,10.00
2019-02-24T13:13:45.680Z,10.00
2019-02-24T13:14:50.361Z,10.10
2019-02-24T13:15:55.205Z,10.10
2019-02-24T13:17:00.160Z,10.10
2019-02-24T13:18:05.309Z,10.10
2019-02-24T13:19:10.434Z,10.10
2019-02-24T13:20:15.343Z,10.20
2019-02-24T13:21:20.314Z,10.20
2019-02-24T13:22:25.434Z,10.20
2019-02-24T13:23:32.499Z,10.20
2019-02-24T13:24:37.357Z,10.10
2019-02-24T13:25:42.172Z,10.10
2019-02-24T13:26:47.096Z,10.10
2019-02-24T13:27:52.298Z,10.10
2019-02-24T13:28:57.278Z,10.10
2019-02-24T13:30:02.319Z,10.10
2019-02-24T13:31:09.329Z,10.10
2019-02-24T13:32:15.092Z,10.10
2019-02-24T13:33:20.370Z,10.10
2019-02-24T13:34:25.335Z,10.20
2019-02-24T13:35:30.272Z,10.20
2019-02-24T13:36:35.163Z,10.30
2019-02-24T13:37:40.257Z,10.30
2019-02-24T13:38:45.045Z,10.30
2019-02-24T13:39:49.763Z,10.30
2019-02-24T13:40:54.718Z,10.30
2019-02-24T13:41:59.443Z,10.40
2019-02-24T13:43:04.608Z,10.40
2019-02-24T13:44:09.700Z,10.40
2019-02-24T13:45:15.236Z,10.40
2019-02-24T13:46:20.518Z,10.50
2019-02-24T13:47:25.252Z,10.40
2019-02-24T13:48:30.195Z,10.50
2019-02-24T13:49:35.123Z,10.60
2019-02-24T13:50:40.087Z,10.60
2019-02-24T13:51:44.886Z,10.70
2019-02-24T13:52:49.680Z,10.80
2019-02-24T13:53:54.469Z,10.90
2019-02-24T13:55:01.132Z,11.00
2019-02-24T13:56:06.965Z,11.10
2019-02-24T13:57:11.823Z,11.20
2019-02-24T13:58:16.677Z,11.40
2019-02-24T13:59:21.582Z,11.40
2019-02-24T14:00:26.618Z,11.60
2019-02-24T14:01:31.443Z,11.70
2019-02-24T14:02:36.478Z,11.80
2019-02-24T14:03:41.502Z,11.80
2019-02-24T14:04:47.846Z,11.90
2019-02-24T14:05:52.796Z,12.00
2019-02-24T14:06:57.975Z,11.90
2019-02-24T14:08:02.956Z,11.90
2019-02-24T14:09:08.425Z,11.90
2019-02-24T14:10:13.889Z,12.00